sensor_id;sensor_type;location;lat;lon;timestamp;P1;durP1;ratioP1;P2;durP2;ratioP2
18449;SDS011;9354;50.194;7.690;2023-04-30T00:00:16;41.67;;;18.67;;
18449;SDS011;9354;50.194;7.690;2023-04-30T00:02:43;38.47;;;18.53;;
18449;SDS011;9354;50.194;7.690;2023-04-30T00:05:11;37.87;;;18.73;;
18449;SDS011;9354;50.194;7.690;2023-04-30T00:07:38;40.17;;;18.87;;
18449;SDS011;9354;50.194;7.690;2023-04-30T00:10:07;38.63;;;18.33;;
18449;SDS011;9354;50.194;7.690;2023-04-30T00:12:35;33.93;;;16.83;;
18449;SDS011;9354;50.194;7.690;2023-04-30T00:15:05;38.13;;;18.03;;
18449;SDS011;9354;50.194;7.690;2023-04-30T00:17:33;33.47;;;16.50;;
18449;SDS011;9354;50.194;7.690;2023-04-30T00:20:00;35.53;;;17.97;;
18449;SDS011;9354;50.194;7.690;2023-04-30T00:22:28;36.87;;;17.87;;
18449;SDS011;9354;50.194;7.690;2023-04-30T00:24:55;32.00;;;16.63;;
18449;SDS011;9354;50.194;7.690;2023-04-30T00:27:22;38.33;;;18.13;;
18449;SDS011;9354;50.194;7.690;2023-04-30T00:29:50;35.90;;;18.57;;
18449;SDS011;9354;50.194;7.690;2023-04-30T00:32:19;43.97;;;19.77;;
18449;SDS011;9354;50.194;7.690;2023-04-30T00:34:46;40.87;;;19.23;;
18449;SDS011;9354;50.194;7.690;2023-04-30T00:37:13;39.87;;;18.67;;
18449;SDS011;9354;50.194;7.690;2023-04-30T00:39:41;40.03;;;19.53;;
18449;SDS011;9354;50.194;7.690;2023-04-30T00:42:08;45.50;;;19.97;;
18449;SDS011;9354;50.194;7.690;2023-04-30T00:44:35;42.93;;;19.07;;
18449;SDS011;9354;50.194;7.690;2023-04-30T00:47:03;41.50;;;18.43;;
18449;SDS011;9354;50.194;7.690;2023-04-30T00:49:32;41.37;;;19.10;;
18449;SDS011;9354;50.194;7.690;2023-04-30T00:51:59;41.27;;;18.60;;
18449;SDS011;9354;50.194;7.690;2023-04-30T00:54:27;39.43;;;18.67;;
18449;SDS011;9354;50.194;7.690;2023-04-30T00:56:54;43.47;;;19.07;;
18449;SDS011;9354;50.194;7.690;2023-04-30T00:59:22;46.47;;;19.00;;
18449;SDS011;9354;50.194;7.690;2023-04-30T01:01:50;45.97;;;20.77;;
18449;SDS011;9354;50.194;7.690;2023-04-30T01:04:17;48.60;;;20.10;;
18449;SDS011;9354;50.194;7.690;2023-04-30T01:06:47;41.50;;;20.07;;
18449;SDS011;9354;50.194;7.690;2023-04-30T01:09:14;42.73;;;20.23;;
18449;SDS011;9354;50.194;7.690;2023-04-30T01:11:45;45.40;;;19.33;;
18449;SDS011;9354;50.194;7.690;2023-04-30T01:14:21;44.37;;;20.77;;
18449;SDS011;9354;50.194;7.690;2023-04-30T01:16:53;41.23;;;20.73;;
18449;SDS011;9354;50.194;7.690;2023-04-30T01:19:34;44.70;;;20.50;;
18449;SDS011;9354;50.194;7.690;2023-04-30T01:22:05;48.07;;;21.17;;
18449;SDS011;9354;50.194;7.690;2023-04-30T01:24:52;43.00;;;20.73;;
18449;SDS011;9354;50.194;7.690;2023-04-30T01:27:55;46.17;;;20.00;;
18449;SDS011;9354;50.194;7.690;2023-04-30T01:30:27;45.63;;;20.37;;
18449;SDS011;9354;50.194;7.690;2023-04-30T01:32:56;50.37;;;20.70;;
18449;SDS011;9354;50.194;7.690;2023-04-30T01:35:26;45.23;;;21.43;;
18449;SDS011;9354;50.194;7.690;2023-04-30T01:38:08;48.27;;;21.17;;
18449;SDS011;9354;50.194;7.690;2023-04-30T01:40:43;51.90;;;21.00;;
18449;SDS011;9354;50.194;7.690;2023-04-30T01:43:22;51.57;;;22.70;;
18449;SDS011;9354;50.194;7.690;2023-04-30T01:46:00;47.00;;;21.67;;
18449;SDS011;9354;50.194;7.690;2023-04-30T01:48:39;49.00;;;22.27;;
18449;SDS011;9354;50.194;7.690;2023-04-30T01:51:14;50.40;;;22.23;;
18449;SDS011;9354;50.194;7.690;2023-04-30T01:53:46;54.67;;;22.67;;
18449;SDS011;9354;50.194;7.690;2023-04-30T01:56:16;53.73;;;22.10;;
18449;SDS011;9354;50.194;7.690;2023-04-30T01:58:51;47.37;;;21.17;;
18449;SDS011;9354;50.194;7.690;2023-04-30T02:01:25;47.67;;;21.97;;
18449;SDS011;9354;50.194;7.690;2023-04-30T02:03:54;53.57;;;21.60;;
18449;SDS011;9354;50.194;7.690;2023-04-30T02:06:21;48.80;;;21.33;;
18449;SDS011;9354;50.194;7.690;2023-04-30T02:08:52;56.93;;;22.97;;
18449;SDS011;9354;50.194;7.690;2023-04-30T02:11:20;54.37;;;21.70;;
18449;SDS011;9354;50.194;7.690;2023-04-30T02:13:48;54.00;;;23.03;;
18449;SDS011;9354;50.194;7.690;2023-04-30T02:16:17;52.43;;;22.37;;
18449;SDS011;9354;50.194;7.690;2023-04-30T02:18:45;52.47;;;23.17;;
18449;SDS011;9354;50.194;7.690;2023-04-30T02:21:13;54.80;;;22.27;;
18449;SDS011;9354;50.194;7.690;2023-04-30T02:23:40;50.13;;;21.37;;
18449;SDS011;9354;50.194;7.690;2023-04-30T02:26:07;52.30;;;21.77;;
18449;SDS011;9354;50.194;7.690;2023-04-30T02:28:35;53.80;;;23.70;;
18449;SDS011;9354;50.194;7.690;2023-04-30T02:31:04;53.87;;;22.17;;
18449;SDS011;9354;50.194;7.690;2023-04-30T02:33:31;59.03;;;23.13;;
18449;SDS011;9354;50.194;7.690;2023-04-30T02:35:59;51.77;;;22.30;;
18449;SDS011;9354;50.194;7.690;2023-04-30T02:38:27;52.40;;;22.47;;
18449;SDS011;9354;50.194;7.690;2023-04-30T02:40:54;49.33;;;20.60;;
18449;SDS011;9354;50.194;7.690;2023-04-30T02:43:21;49.87;;;22.10;;
18449;SDS011;9354;50.194;7.690;2023-04-30T02:45:49;44.43;;;20.67;;
18449;SDS011;9354;50.194;7.690;2023-04-30T02:48:17;50.13;;;21.93;;
18449;SDS011;9354;50.194;7.690;2023-04-30T02:50:45;47.03;;;20.37;;
18449;SDS011;9354;50.194;7.690;2023-04-30T02:53:12;49.03;;;21.83;;
18449;SDS011;9354;50.194;7.690;2023-04-30T02:55:40;47.37;;;20.93;;
18449;SDS011;9354;50.194;7.690;2023-04-30T02:58:07;48.40;;;21.13;;
18449;SDS011;9354;50.194;7.690;2023-04-30T03:00:34;44.63;;;20.40;;
18449;SDS011;9354;50.194;7.690;2023-04-30T03:03:02;47.37;;;21.37;;
18449;SDS011;9354;50.194;7.690;2023-04-30T03:05:31;49.23;;;21.07;;
18449;SDS011;9354;50.194;7.690;2023-04-30T03:07:58;45.80;;;21.13;;
18449;SDS011;9354;50.194;7.690;2023-04-30T03:10:25;49.20;;;21.37;;
18449;SDS011;9354;50.194;7.690;2023-04-30T03:12:53;46.97;;;20.83;;
18449;SDS011;9354;50.194;7.690;2023-04-30T03:15:20;53.63;;;21.20;;
18449;SDS011;9354;50.194;7.690;2023-04-30T03:17:47;50.43;;;20.60;;
18449;SDS011;9354;50.194;7.690;2023-04-30T03:20:15;46.27;;;20.87;;
18449;SDS011;9354;50.194;7.690;2023-04-30T03:22:44;46.40;;;20.93;;
18449;SDS011;9354;50.194;7.690;2023-04-30T03:25:11;43.87;;;20.40;;
18449;SDS011;9354;50.194;7.690;2023-04-30T03:27:38;42.27;;;19.97;;
18449;SDS011;9354;50.194;7.690;2023-04-30T03:30:06;45.63;;;19.57;;
18449;SDS011;9354;50.194;7.690;2023-04-30T03:32:34;43.30;;;20.57;;
18449;SDS011;9354;50.194;7.690;2023-04-30T03:35:01;44.80;;;20.70;;
18449;SDS011;9354;50.194;7.690;2023-04-30T03:37:29;45.23;;;21.20;;
18449;SDS011;9354;50.194;7.690;2023-04-30T03:39:58;41.00;;;20.17;;
18449;SDS011;9354;50.194;7.690;2023-04-30T03:42:25;44.17;;;19.87;;
18449;SDS011;9354;50.194;7.690;2023-04-30T03:44:53;40.07;;;19.47;;
18449;SDS011;9354;50.194;7.690;2023-04-30T03:47:20;40.57;;;18.30;;
18449;SDS011;9354;50.194;7.690;2023-04-30T03:49:47;41.50;;;18.67;;
18449;SDS011;9354;50.194;7.690;2023-04-30T03:52:19;39.33;;;18.37;;
18449;SDS011;9354;50.194;7.690;2023-04-30T03:54:47;36.63;;;18.27;;
18449;SDS011;9354;50.194;7.690;2023-04-30T03:57:15;42.73;;;19.23;;
18449;SDS011;9354;50.194;7.690;2023-04-30T03:59:43;36.87;;;18.40;;
18449;SDS011;9354;50.194;7.690;2023-04-30T04:02:10;34.80;;;17.90;;
18449;SDS011;9354;50.194;7.690;2023-04-30T04:04:38;37.10;;;17.87;;
18449;SDS011;9354;50.194;7.690;2023-04-30T04:07:06;34.93;;;17.33;;
18449;SDS011;9354;50.194;7.690;2023-04-30T04:09:34;33.87;;;17.97;;
18449;SDS011;9354;50.194;7.690;2023-04-30T04:12:01;35.70;;;18.37;;
18449;SDS011;9354;50.194;7.690;2023-04-30T04:14:30;34.33;;;16.43;;
18449;SDS011;9354;50.194;7.690;2023-04-30T04:16:57;38.40;;;17.97;;
18449;SDS011;9354;50.194;7.690;2023-04-30T04:19:26;33.10;;;16.97;;
18449;SDS011;9354;50.194;7.690;2023-04-30T04:21:53;37.63;;;17.80;;
18449;SDS011;9354;50.194;7.690;2023-04-30T04:24:23;37.87;;;17.67;;
18449;SDS011;9354;50.194;7.690;2023-04-30T04:26:50;37.97;;;17.90;;
18449;SDS011;9354;50.194;7.690;2023-04-30T04:29:18;34.20;;;16.93;;
18449;SDS011;9354;50.194;7.690;2023-04-30T04:31:47;36.57;;;17.90;;
18449;SDS011;9354;50.194;7.690;2023-04-30T04:34:15;34.03;;;17.27;;
18449;SDS011;9354;50.194;7.690;2023-04-30T04:36:44;32.87;;;16.90;;
18449;SDS011;9354;50.194;7.690;2023-04-30T04:39:12;36.73;;;17.53;;
18449;SDS011;9354;50.194;7.690;2023-04-30T04:41:39;31.93;;;17.40;;
18449;SDS011;9354;50.194;7.690;2023-04-30T04:44:07;30.73;;;17.60;;
18449;SDS011;9354;50.194;7.690;2023-04-30T04:46:34;32.23;;;17.27;;
18449;SDS011;9354;50.194;7.690;2023-04-30T04:49:04;37.97;;;17.87;;
18449;SDS011;9354;50.194;7.690;2023-04-30T04:51:32;30.80;;;16.10;;
18449;SDS011;9354;50.194;7.690;2023-04-30T04:53:59;34.03;;;18.10;;
18449;SDS011;9354;50.194;7.690;2023-04-30T04:56:27;33.70;;;16.67;;
18449;SDS011;9354;50.194;7.690;2023-04-30T04:58:54;39.47;;;17.90;;
18449;SDS011;9354;50.194;7.690;2023-04-30T05:01:21;31.40;;;15.60;;
18449;SDS011;9354;50.194;7.690;2023-04-30T05:03:49;34.93;;;17.33;;
18449;SDS011;9354;50.194;7.690;2023-04-30T05:06:19;34.87;;;17.93;;
18449;SDS011;9354;50.194;7.690;2023-04-30T05:08:46;34.33;;;17.03;;
18449;SDS011;9354;50.194;7.690;2023-04-30T05:11:14;35.27;;;17.27;;
18449;SDS011;9354;50.194;7.690;2023-04-30T05:13:41;33.63;;;17.73;;
18449;SDS011;9354;50.194;7.690;2023-04-30T05:16:09;36.57;;;17.70;;
18449;SDS011;9354;50.194;7.690;2023-04-30T05:18:36;32.87;;;16.93;;
18449;SDS011;9354;50.194;7.690;2023-04-30T05:21:04;32.20;;;17.83;;
18449;SDS011;9354;50.194;7.690;2023-04-30T05:23:32;30.53;;;16.33;;
18449;SDS011;9354;50.194;7.690;2023-04-30T05:26:00;37.77;;;18.00;;
18449;SDS011;9354;50.194;7.690;2023-04-30T05:28:28;34.40;;;17.37;;
18449;SDS011;9354;50.194;7.690;2023-04-30T05:30:55;35.53;;;17.63;;
18449;SDS011;9354;50.194;7.690;2023-04-30T05:33:23;35.00;;;16.83;;
18449;SDS011;9354;50.194;7.690;2023-04-30T05:35:50;30.20;;;16.37;;
18449;SDS011;9354;50.194;7.690;2023-04-30T05:38:18;31.43;;;16.60;;
18449;SDS011;9354;50.194;7.690;2023-04-30T05:40:46;30.57;;;16.60;;
18449;SDS011;9354;50.194;7.690;2023-04-30T05:43:14;27.80;;;15.47;;
18449;SDS011;9354;50.194;7.690;2023-04-30T05:45:41;32.60;;;16.73;;
18449;SDS011;9354;50.194;7.690;2023-04-30T05:48:08;29.17;;;15.47;;
18449;SDS011;9354;50.194;7.690;2023-04-30T05:50:36;27.80;;;15.77;;
18449;SDS011;9354;50.194;7.690;2023-04-30T05:53:03;28.30;;;16.27;;
18449;SDS011;9354;50.194;7.690;2023-04-30T05:55:31;29.43;;;16.13;;
18449;SDS011;9354;50.194;7.690;2023-04-30T05:58:00;32.30;;;15.70;;
18449;SDS011;9354;50.194;7.690;2023-04-30T06:00:27;30.27;;;15.03;;
18449;SDS011;9354;50.194;7.690;2023-04-30T06:02:55;36.60;;;15.70;;
18449;SDS011;9354;50.194;7.690;2023-04-30T06:05:23;27.40;;;14.97;;
18449;SDS011;9354;50.194;7.690;2023-04-30T06:07:50;28.77;;;15.70;;
18449;SDS011;9354;50.194;7.690;2023-04-30T06:10:18;31.93;;;16.37;;
18449;SDS011;9354;50.194;7.690;2023-04-30T06:12:45;27.23;;;14.53;;
18449;SDS011;9354;50.194;7.690;2023-04-30T06:15:14;29.17;;;15.17;;
18449;SDS011;9354;50.194;7.690;2023-04-30T06:17:41;27.47;;;14.27;;
18449;SDS011;9354;50.194;7.690;2023-04-30T06:20:09;27.33;;;14.47;;
18449;SDS011;9354;50.194;7.690;2023-04-30T06:22:37;24.97;;;14.33;;
18449;SDS011;9354;50.194;7.690;2023-04-30T06:25:06;26.73;;;14.20;;
18449;SDS011;9354;50.194;7.690;2023-04-30T06:27:34;24.33;;;13.33;;
18449;SDS011;9354;50.194;7.690;2023-04-30T06:30:01;28.87;;;14.70;;
18449;SDS011;9354;50.194;7.690;2023-04-30T06:32:30;25.20;;;13.70;;
18449;SDS011;9354;50.194;7.690;2023-04-30T06:34:58;25.27;;;13.37;;
18449;SDS011;9354;50.194;7.690;2023-04-30T06:37:25;24.23;;;13.30;;
18449;SDS011;9354;50.194;7.690;2023-04-30T06:39:53;24.20;;;13.33;;
18449;SDS011;9354;50.194;7.690;2023-04-30T06:42:20;27.10;;;13.33;;
18449;SDS011;9354;50.194;7.690;2023-04-30T06:44:50;27.10;;;13.90;;
18449;SDS011;9354;50.194;7.690;2023-04-30T06:47:19;28.10;;;15.23;;
18449;SDS011;9354;50.194;7.690;2023-04-30T06:49:48;25.03;;;13.00;;
18449;SDS011;9354;50.194;7.690;2023-04-30T06:52:16;22.20;;;12.67;;
18449;SDS011;9354;50.194;7.690;2023-04-30T06:54:43;25.27;;;13.47;;
18449;SDS011;9354;50.194;7.690;2023-04-30T06:57:10;22.37;;;11.60;;
18449;SDS011;9354;50.194;7.690;2023-04-30T06:59:38;20.17;;;11.90;;
18449;SDS011;9354;50.194;7.690;2023-04-30T07:02:05;22.67;;;11.00;;
18449;SDS011;9354;50.194;7.690;2023-04-30T07:04:32;19.77;;;11.33;;
18449;SDS011;9354;50.194;7.690;2023-04-30T07:07:01;20.47;;;11.90;;
18449;SDS011;9354;50.194;7.690;2023-04-30T07:09:29;23.97;;;11.40;;
18449;SDS011;9354;50.194;7.690;2023-04-30T07:11:56;23.03;;;11.70;;
18449;SDS011;9354;50.194;7.690;2023-04-30T07:14:24;19.10;;;11.37;;
18449;SDS011;9354;50.194;7.690;2023-04-30T07:16:51;17.33;;;10.07;;
18449;SDS011;9354;50.194;7.690;2023-04-30T07:19:19;18.97;;;10.10;;
18449;SDS011;9354;50.194;7.690;2023-04-30T07:21:48;20.20;;;10.50;;
18449;SDS011;9354;50.194;7.690;2023-04-30T07:24:16;19.73;;;10.27;;
18449;SDS011;9354;50.194;7.690;2023-04-30T07:26:44;18.73;;;10.23;;
18449;SDS011;9354;50.194;7.690;2023-04-30T07:29:11;19.63;;;10.00;;
18449;SDS011;9354;50.194;7.690;2023-04-30T07:31:38;16.30;;;9.30;;
18449;SDS011;9354;50.194;7.690;2023-04-30T07:34:06;20.67;;;9.87;;
18449;SDS011;9354;50.194;7.690;2023-04-30T07:36:34;14.50;;;8.57;;
18449;SDS011;9354;50.194;7.690;2023-04-30T07:39:03;18.87;;;9.10;;
18449;SDS011;9354;50.194;7.690;2023-04-30T07:41:33;17.73;;;8.30;;
18449;SDS011;9354;50.194;7.690;2023-04-30T07:44:01;12.77;;;7.90;;
18449;SDS011;9354;50.194;7.690;2023-04-30T07:46:28;17.57;;;8.30;;
18449;SDS011;9354;50.194;7.690;2023-04-30T07:48:56;13.13;;;8.17;;
18449;SDS011;9354;50.194;7.690;2023-04-30T07:51:23;14.00;;;8.33;;
18449;SDS011;9354;50.194;7.690;2023-04-30T07:53:51;15.37;;;8.00;;
18449;SDS011;9354;50.194;7.690;2023-04-30T07:56:18;15.63;;;7.20;;
18449;SDS011;9354;50.194;7.690;2023-04-30T07:58:47;11.10;;;6.43;;
18449;SDS011;9354;50.194;7.690;2023-04-30T08:01:14;13.87;;;7.60;;
18449;SDS011;9354;50.194;7.690;2023-04-30T08:03:42;13.23;;;7.10;;
18449;SDS011;9354;50.194;7.690;2023-04-30T08:06:10;13.40;;;7.60;;
18449;SDS011;9354;50.194;7.690;2023-04-30T08:08:38;13.23;;;6.90;;
18449;SDS011;9354;50.194;7.690;2023-04-30T08:11:05;14.50;;;6.23;;
18449;SDS011;9354;50.194;7.690;2023-04-30T08:13:33;11.97;;;6.33;;
18449;SDS011;9354;50.194;7.690;2023-04-30T08:16:02;11.23;;;5.87;;
18449;SDS011;9354;50.194;7.690;2023-04-30T08:18:30;9.50;;;5.67;;
18449;SDS011;9354;50.194;7.690;2023-04-30T08:20:58;15.93;;;6.00;;
18449;SDS011;9354;50.194;7.690;2023-04-30T08:23:26;11.97;;;5.60;;
18449;SDS011;9354;50.194;7.690;2023-04-30T08:25:53;10.23;;;5.27;;
18449;SDS011;9354;50.194;7.690;2023-04-30T08:28:20;9.93;;;5.60;;
18449;SDS011;9354;50.194;7.690;2023-04-30T08:30:48;7.10;;;5.27;;
18449;SDS011;9354;50.194;7.690;2023-04-30T08:33:17;11.13;;;5.60;;
18449;SDS011;9354;50.194;7.690;2023-04-30T08:35:44;9.10;;;5.40;;
18449;SDS011;9354;50.194;7.690;2023-04-30T08:38:12;9.67;;;5.63;;
18449;SDS011;9354;50.194;7.690;2023-04-30T08:40:39;8.27;;;4.93;;
18449;SDS011;9354;50.194;7.690;2023-04-30T08:43:07;8.97;;;5.53;;
18449;SDS011;9354;50.194;7.690;2023-04-30T08:45:36;10.90;;;5.17;;
18449;SDS011;9354;50.194;7.690;2023-04-30T08:48:03;8.10;;;5.03;;
18449;SDS011;9354;50.194;7.690;2023-04-30T08:50:36;11.23;;;4.93;;
18449;SDS011;9354;50.194;7.690;2023-04-30T08:53:04;9.53;;;4.80;;
18449;SDS011;9354;50.194;7.690;2023-04-30T08:55:33;7.70;;;4.40;;
18449;SDS011;9354;50.194;7.690;2023-04-30T08:58:00;8.03;;;4.67;;
18449;SDS011;9354;50.194;7.690;2023-04-30T09:00:30;9.17;;;4.07;;
18449;SDS011;9354;50.194;7.690;2023-04-30T09:02:59;7.50;;;4.33;;
18449;SDS011;9354;50.194;7.690;2023-04-30T09:05:26;8.27;;;3.60;;
18449;SDS011;9354;50.194;7.690;2023-04-30T09:07:55;9.60;;;4.63;;
18449;SDS011;9354;50.194;7.690;2023-04-30T09:10:23;6.00;;;3.90;;
18449;SDS011;9354;50.194;7.690;2023-04-30T09:13:00;7.37;;;4.20;;
18449;SDS011;9354;50.194;7.690;2023-04-30T09:15:28;6.03;;;3.63;;
18449;SDS011;9354;50.194;7.690;2023-04-30T09:18:06;7.17;;;3.37;;
18449;SDS011;9354;50.194;7.690;2023-04-30T09:20:52;4.87;;;3.37;;
18449;SDS011;9354;50.194;7.690;2023-04-30T09:23:22;6.30;;;3.40;;
18449;SDS011;9354;50.194;7.690;2023-04-30T09:25:50;6.60;;;3.00;;
18449;SDS011;9354;50.194;7.690;2023-04-30T09:28:19;7.43;;;3.30;;
18449;SDS011;9354;50.194;7.690;2023-04-30T09:30:50;6.37;;;2.90;;
18449;SDS011;9354;50.194;7.690;2023-04-30T09:33:18;5.17;;;3.07;;
18449;SDS011;9354;50.194;7.690;2023-04-30T09:35:46;6.67;;;3.17;;
18449;SDS011;9354;50.194;7.690;2023-04-30T09:38:27;4.20;;;2.30;;
18449;SDS011;9354;50.194;7.690;2023-04-30T09:40:56;6.23;;;3.27;;
18449;SDS011;9354;50.194;7.690;2023-04-30T09:43:25;6.00;;;2.93;;
18449;SDS011;9354;50.194;7.690;2023-04-30T09:45:53;4.80;;;2.87;;
18449;SDS011;9354;50.194;7.690;2023-04-30T09:48:20;4.20;;;2.43;;
18449;SDS011;9354;50.194;7.690;2023-04-30T09:50:49;4.10;;;2.30;;
18449;SDS011;9354;50.194;7.690;2023-04-30T09:53:17;4.67;;;2.87;;
18449;SDS011;9354;50.194;7.690;2023-04-30T09:55:47;3.03;;;2.23;;
18449;SDS011;9354;50.194;7.690;2023-04-30T09:58:16;4.07;;;2.60;;
18449;SDS011;9354;50.194;7.690;2023-04-30T10:00:44;4.27;;;2.13;;
18449;SDS011;9354;50.194;7.690;2023-04-30T10:03:14;3.67;;;2.20;;
18449;SDS011;9354;50.194;7.690;2023-04-30T10:05:43;3.87;;;2.23;;
18449;SDS011;9354;50.194;7.690;2023-04-30T10:08:14;4.07;;;2.53;;
18449;SDS011;9354;50.194;7.690;2023-04-30T10:10:53;3.40;;;2.30;;
18449;SDS011;9354;50.194;7.690;2023-04-30T10:13:25;3.67;;;1.90;;
18449;SDS011;9354;50.194;7.690;2023-04-30T10:15:58;3.43;;;2.07;;
18449;SDS011;9354;50.194;7.690;2023-04-30T10:18:33;5.73;;;2.87;;
18449;SDS011;9354;50.194;7.690;2023-04-30T10:21:03;3.10;;;2.20;;
18449;SDS011;9354;50.194;7.690;2023-04-30T10:23:34;7.07;;;2.47;;
18449;SDS011;9354;50.194;7.690;2023-04-30T10:26:05;4.83;;;1.90;;
18449;SDS011;9354;50.194;7.690;2023-04-30T10:28:34;3.37;;;1.80;;
18449;SDS011;9354;50.194;7.690;2023-04-30T10:31:01;4.60;;;1.97;;
18449;SDS011;9354;50.194;7.690;2023-04-30T10:33:31;3.33;;;1.80;;
18449;SDS011;9354;50.194;7.690;2023-04-30T10:36:06;3.00;;;2.00;;
18449;SDS011;9354;50.194;7.690;2023-04-30T10:38:38;3.07;;;2.00;;
18449;SDS011;9354;50.194;7.690;2023-04-30T10:41:08;3.07;;;1.90;;
18449;SDS011;9354;50.194;7.690;2023-04-30T10:43:35;2.33;;;1.60;;
18449;SDS011;9354;50.194;7.690;2023-04-30T10:46:03;3.47;;;1.57;;
18449;SDS011;9354;50.194;7.690;2023-04-30T10:48:32;4.63;;;1.63;;
18449;SDS011;9354;50.194;7.690;2023-04-30T10:51:00;2.97;;;1.50;;
18449;SDS011;9354;50.194;7.690;2023-04-30T10:53:29;4.13;;;1.73;;
18449;SDS011;9354;50.194;7.690;2023-04-30T10:55:59;6.70;;;1.67;;
18449;SDS011;9354;50.194;7.690;2023-04-30T10:58:32;2.73;;;2.00;;
18449;SDS011;9354;50.194;7.690;2023-04-30T11:01:02;3.20;;;1.77;;
18449;SDS011;9354;50.194;7.690;2023-04-30T11:03:32;3.40;;;1.60;;
18449;SDS011;9354;50.194;7.690;2023-04-30T11:06:06;2.57;;;1.50;;
18449;SDS011;9354;50.194;7.690;2023-04-30T11:08:37;3.70;;;1.67;;
18449;SDS011;9354;50.194;7.690;2023-04-30T11:11:07;2.20;;;1.53;;
18449;SDS011;9354;50.194;7.690;2023-04-30T11:13:39;3.07;;;1.33;;
18449;SDS011;9354;50.194;7.690;2023-04-30T11:16:09;2.53;;;1.47;;
18449;SDS011;9354;50.194;7.690;2023-04-30T11:18:40;1.77;;;1.00;;
18449;SDS011;9354;50.194;7.690;2023-04-30T11:21:09;3.27;;;1.60;;
18449;SDS011;9354;50.194;7.690;2023-04-30T11:23:39;4.10;;;1.17;;
18449;SDS011;9354;50.194;7.690;2023-04-30T11:26:08;3.43;;;1.30;;
18449;SDS011;9354;50.194;7.690;2023-04-30T11:28:36;1.10;;;1.00;;
18449;SDS011;9354;50.194;7.690;2023-04-30T11:31:05;3.10;;;1.27;;
18449;SDS011;9354;50.194;7.690;2023-04-30T11:33:32;6.33;;;1.27;;
18449;SDS011;9354;50.194;7.690;2023-04-30T11:36:00;4.50;;;1.20;;
18449;SDS011;9354;50.194;7.690;2023-04-30T11:38:28;2.50;;;1.40;;
18449;SDS011;9354;50.194;7.690;2023-04-30T11:40:56;2.13;;;1.20;;
18449;SDS011;9354;50.194;7.690;2023-04-30T11:43:25;1.60;;;1.00;;
18449;SDS011;9354;50.194;7.690;2023-04-30T11:46:08;3.33;;;1.00;;
18449;SDS011;9354;50.194;7.690;2023-04-30T11:48:37;1.77;;;1.10;;
18449;SDS011;9354;50.194;7.690;2023-04-30T11:51:15;2.27;;;1.30;;
18449;SDS011;9354;50.194;7.690;2023-04-30T11:53:44;2.93;;;1.10;;
18449;SDS011;9354;50.194;7.690;2023-04-30T11:56:13;2.77;;;1.17;;
18449;SDS011;9354;50.194;7.690;2023-04-30T11:58:45;2.03;;;1.10;;
18449;SDS011;9354;50.194;7.690;2023-04-30T12:01:14;1.53;;;1.00;;
18449;SDS011;9354;50.194;7.690;2023-04-30T12:03:42;3.27;;;1.07;;
18449;SDS011;9354;50.194;7.690;2023-04-30T12:06:10;2.27;;;0.90;;
18449;SDS011;9354;50.194;7.690;2023-04-30T12:08:47;2.70;;;1.10;;
18449;SDS011;9354;50.194;7.690;2023-04-30T12:11:20;1.27;;;0.93;;
18449;SDS011;9354;50.194;7.690;2023-04-30T12:13:50;1.53;;;0.90;;
18449;SDS011;9354;50.194;7.690;2023-04-30T12:16:19;2.47;;;1.10;;
18449;SDS011;9354;50.194;7.690;2023-04-30T12:18:47;3.30;;;0.90;;
18449;SDS011;9354;50.194;7.690;2023-04-30T12:21:16;1.43;;;1.00;;
18449;SDS011;9354;50.194;7.690;2023-04-30T12:23:44;1.47;;;0.83;;
18449;SDS011;9354;50.194;7.690;2023-04-30T12:26:13;1.20;;;0.87;;
18449;SDS011;9354;50.194;7.690;2023-04-30T12:28:40;1.77;;;1.00;;
18449;SDS011;9354;50.194;7.690;2023-04-30T12:31:08;3.83;;;0.90;;
18449;SDS011;9354;50.194;7.690;2023-04-30T12:33:37;1.77;;;0.80;;
18449;SDS011;9354;50.194;7.690;2023-04-30T12:36:08;2.87;;;1.00;;
18449;SDS011;9354;50.194;7.690;2023-04-30T12:38:36;2.20;;;0.70;;
18449;SDS011;9354;50.194;7.690;2023-04-30T12:41:10;1.03;;;0.70;;
18449;SDS011;9354;50.194;7.690;2023-04-30T12:43:39;1.87;;;0.70;;
18449;SDS011;9354;50.194;7.690;2023-04-30T12:46:07;1.53;;;0.70;;
18449;SDS011;9354;50.194;7.690;2023-04-30T12:48:43;1.13;;;0.67;;
18449;SDS011;9354;50.194;7.690;2023-04-30T12:51:10;2.10;;;0.80;;
18449;SDS011;9354;50.194;7.690;2023-04-30T12:53:43;0.93;;;0.57;;
18449;SDS011;9354;50.194;7.690;2023-04-30T12:56:12;1.47;;;0.60;;
18449;SDS011;9354;50.194;7.690;2023-04-30T12:58:41;1.83;;;0.80;;
18449;SDS011;9354;50.194;7.690;2023-04-30T13:01:12;2.93;;;0.80;;
18449;SDS011;9354;50.194;7.690;2023-04-30T13:03:43;2.57;;;0.70;;
18449;SDS011;9354;50.194;7.690;2023-04-30T13:06:11;1.00;;;0.57;;
18449;SDS011;9354;50.194;7.690;2023-04-30T13:08:38;3.33;;;0.70;;
18449;SDS011;9354;50.194;7.690;2023-04-30T13:11:06;6.53;;;0.77;;
18449;SDS011;9354;50.194;7.690;2023-04-30T13:13:33;1.50;;;0.60;;
18449;SDS011;9354;50.194;7.690;2023-04-30T13:16:01;0.70;;;0.57;;
18449;SDS011;9354;50.194;7.690;2023-04-30T13:18:31;2.43;;;0.70;;
18449;SDS011;9354;50.194;7.690;2023-04-30T13:20:59;3.07;;;0.80;;
18449;SDS011;9354;50.194;7.690;2023-04-30T13:23:27;1.20;;;0.80;;
18449;SDS011;9354;50.194;7.690;2023-04-30T13:25:54;0.73;;;0.50;;
18449;SDS011;9354;50.194;7.690;2023-04-30T13:28:21;1.07;;;0.97;;
18449;SDS011;9354;50.194;7.690;2023-04-30T13:30:49;0.83;;;0.60;;
18449;SDS011;9354;50.194;7.690;2023-04-30T13:33:16;1.17;;;0.60;;
18449;SDS011;9354;50.194;7.690;2023-04-30T13:35:44;0.93;;;0.70;;
18449;SDS011;9354;50.194;7.690;2023-04-30T13:38:13;0.77;;;0.77;;
18449;SDS011;9354;50.194;7.690;2023-04-30T13:40:41;1.73;;;0.60;;
18449;SDS011;9354;50.194;7.690;2023-04-30T13:43:08;1.40;;;0.70;;
18449;SDS011;9354;50.194;7.690;2023-04-30T13:45:35;1.17;;;0.80;;
18449;SDS011;9354;50.194;7.690;2023-04-30T13:48:03;0.80;;;0.60;;
18449;SDS011;9354;50.194;7.690;2023-04-30T13:50:30;1.50;;;0.70;;
18449;SDS011;9354;50.194;7.690;2023-04-30T13:52:58;1.00;;;0.70;;
18449;SDS011;9354;50.194;7.690;2023-04-30T13:55:27;1.20;;;0.77;;
18449;SDS011;9354;50.194;7.690;2023-04-30T13:57:55;0.77;;;0.50;;
18449;SDS011;9354;50.194;7.690;2023-04-30T14:00:23;0.50;;;0.50;;
18449;SDS011;9354;50.194;7.690;2023-04-30T14:02:51;1.13;;;0.60;;
18449;SDS011;9354;50.194;7.690;2023-04-30T14:05:20;0.60;;;0.60;;
18449;SDS011;9354;50.194;7.690;2023-04-30T14:07:47;2.20;;;0.60;;
18449;SDS011;9354;50.194;7.690;2023-04-30T14:10:14;1.43;;;0.70;;
18449;SDS011;9354;50.194;7.690;2023-04-30T14:12:43;0.80;;;0.60;;
18449;SDS011;9354;50.194;7.690;2023-04-30T14:15:11;1.80;;;0.60;;
18449;SDS011;9354;50.194;7.690;2023-04-30T14:17:39;1.57;;;0.50;;
18449;SDS011;9354;50.194;7.690;2023-04-30T14:20:06;0.90;;;0.60;;
18449;SDS011;9354;50.194;7.690;2023-04-30T14:22:35;0.90;;;0.60;;
18449;SDS011;9354;50.194;7.690;2023-04-30T14:25:04;0.70;;;0.47;;
18449;SDS011;9354;50.194;7.690;2023-04-30T14:27:32;0.40;;;0.40;;
18449;SDS011;9354;50.194;7.690;2023-04-30T14:30:00;0.87;;;0.70;;
18449;SDS011;9354;50.194;7.690;2023-04-30T14:32:28;1.03;;;0.40;;
18449;SDS011;9354;50.194;7.690;2023-04-30T14:34:56;0.77;;;0.50;;
18449;SDS011;9354;50.194;7.690;2023-04-30T14:37:23;0.63;;;0.47;;
18449;SDS011;9354;50.194;7.690;2023-04-30T14:39:50;0.97;;;0.60;;
18449;SDS011;9354;50.194;7.690;2023-04-30T14:42:18;1.17;;;0.57;;
18449;SDS011;9354;50.194;7.690;2023-04-30T14:44:46;3.40;;;0.50;;
18449;SDS011;9354;50.194;7.690;2023-04-30T14:47:14;0.50;;;0.40;;
18449;SDS011;9354;50.194;7.690;2023-04-30T14:49:42;0.60;;;0.47;;
18449;SDS011;9354;50.194;7.690;2023-04-30T14:52:09;0.90;;;0.50;;
18449;SDS011;9354;50.194;7.690;2023-04-30T14:54:37;0.73;;;0.50;;